sensor_id;sensor_type;location;lat;lon;timestamp;temperature;humidity
1083;DHT22;530;51.448;7.238;2023-02-02T00:01:56;6.40;99.90
1083;DHT22;530;51.448;7.238;2023-02-02T00:04:23;6.40;99.90
1083;DHT22;530;51.448;7.238;2023-02-02T00:06:48;6.50;99.90
1083;DHT22;530;51.448;7.238;2023-02-02T00:09:16;6.50;99.90
1083;DHT22;530;51.448;7.238;2023-02-02T00:11:43;6.40;99.90
1083;DHT22;530;51.448;7.238;2023-02-02T00:14:09;6.50;99.90
1083;DHT22;530;51.448;7.238;2023-02-02T00:16:37;6.50;99.90
1083;DHT22;530;51.448;7.238;2023-02-02T00:19:09;6.50;99.90
1083;DHT22;530;51.448;7.238;2023-02-02T00:21:35;6.50;99.90
1083;DHT22;530;51.448;7.238;2023-02-02T00:24:03;6.60;99.90
1083;DHT22;530;51.448;7.238;2023-02-02T00:26:29;6.80;99.90
1083;DHT22;530;51.448;7.238;2023-02-02T00:28:55;6.50;99.90
1083;DHT22;530;51.448;7.238;2023-02-02T00:31:21;6.60;99.90
1083;DHT22;530;51.448;7.238;2023-02-02T00:33:48;6.50;99.90
1083;DHT22;530;51.448;7.238;2023-02-02T00:36:15;6.50;99.90
1083;DHT22;530;51.448;7.238;2023-02-02T00:38:41;6.40;99.90
1083;DHT22;530;51.448;7.238;2023-02-02T00:41:06;6.50;99.90
1083;DHT22;530;51.448;7.238;2023-02-02T00:43:32;6.60;99.90
1083;DHT22;530;51.448;7.238;2023-02-02T00:45:58;6.70;99.90
1083;DHT22;530;51.448;7.238;2023-02-02T00:48:24;6.80;99.90
1083;DHT22;530;51.448;7.238;2023-02-02T00:50:52;6.50;99.90
1083;DHT22;530;51.448;7.238;2023-02-02T00:53:18;6.60;99.90
1083;DHT22;530;51.448;7.238;2023-02-02T00:55:44;6.70;99.90
1083;DHT22;530;51.448;7.238;2023-02-02T00:58:10;6.70;99.90
1083;DHT22;530;51.448;7.238;2023-02-02T01:00:35;6.70;99.90
1083;DHT22;530;51.448;7.238;2023-02-02T01:03:02;6.70;99.90
1083;DHT22;530;51.448;7.238;2023-02-02T01:05:32;6.90;99.90
1083;DHT22;530;51.448;7.238;2023-02-02T01:07:58;6.80;99.90
1083;DHT22;530;51.448;7.238;2023-02-02T01:10:23;6.90;99.90
1083;DHT22;530;51.448;7.238;2023-02-02T01:12:49;6.90;99.90
1083;DHT22;530;51.448;7.238;2023-02-02T01:15:15;6.90;99.90
1083;DHT22;530;51.448;7.238;2023-02-02T01:17:41;6.90;99.90
1083;DHT22;530;51.448;7.238;2023-02-02T01:20:07;6.90;99.90
1083;DHT22;530;51.448;7.238;2023-02-02T01:22:33;6.80;99.90
1083;DHT22;530;51.448;7.238;2023-02-02T01:24:59;6.80;99.90
1083;DHT22;530;51.448;7.238;2023-02-02T01:27:25;6.80;99.90
1083;DHT22;530;51.448;7.238;2023-02-02T01:29:51;7.00;99.90
1083;DHT22;530;51.448;7.238;2023-02-02T01:32:16;6.80;99.90
1083;DHT22;530;51.448;7.238;2023-02-02T01:34:42;6.90;99.90
1083;DHT22;530;51.448;7.238;2023-02-02T01:37:08;6.80;99.90
1083;DHT22;530;51.448;7.238;2023-02-02T01:39:34;7.00;99.90
1083;DHT22;530;51.448;7.238;2023-02-02T01:42:00;6.90;99.90
1083;DHT22;530;51.448;7.238;2023-02-02T01:47:51;7.00;99.90
1083;DHT22;530;51.448;7.238;2023-02-02T01:50:21;6.90;99.90
1083;DHT22;530;51.448;7.238;2023-02-02T01:52:48;6.90;99.90
1083;DHT22;530;51.448;7.238;2023-02-02T01:55:19;7.00;99.90
1083;DHT22;530;51.448;7.238;2023-02-02T02:00:16;7.00;99.90
1083;DHT22;530;51.448;7.238;2023-02-02T02:02:45;7.10;99.90
1083;DHT22;530;51.448;7.238;2023-02-02T02:05:15;7.00;99.90
1083;DHT22;530;51.448;7.238;2023-02-02T02:07:43;7.10;99.90
1083;DHT22;530;51.448;7.238;2023-02-02T02:10:10;7.10;99.90
1083;DHT22;530;51.448;7.238;2023-02-02T02:12:36;7.10;99.90
1083;DHT22;530;51.448;7.238;2023-02-02T02:15:01;7.00;99.90
1083;DHT22;530;51.448;7.238;2023-02-02T02:18:21;7.10;99.90
1083;DHT22;530;51.448;7.238;2023-02-02T02:36:01;7.10;99.90
1083;DHT22;530;51.448;7.238;2023-02-02T02:41:17;7.30;99.90
1083;DHT22;530;51.448;7.238;2023-02-02T02:44:07;7.20;99.90
1083;DHT22;530;51.448;7.238;2023-02-02T02:46:34;7.30;99.90
1083;DHT22;530;51.448;7.238;2023-02-02T02:49:01;7.10;99.90
1083;DHT22;530;51.448;7.238;2023-02-02T02:54:13;7.20;99.90
1083;DHT22;530;51.448;7.238;2023-02-02T03:10:34;7.30;99.90
1083;DHT22;530;51.448;7.238;2023-02-02T03:13:00;7.20;99.90
1083;DHT22;530;51.448;7.238;2023-02-02T03:15:30;7.30;99.90
1083;DHT22;530;51.448;7.238;2023-02-02T03:17:56;7.20;99.90
1083;DHT22;530;51.448;7.238;2023-02-02T03:20:22;7.20;99.90
1083;DHT22;530;51.448;7.238;2023-02-02T03:22:48;7.20;99.90
1083;DHT22;530;51.448;7.238;2023-02-02T03:25:14;7.20;99.90
1083;DHT22;530;51.448;7.238;2023-02-02T03:27:41;7.20;99.90
1083;DHT22;530;51.448;7.238;2023-02-02T03:30:09;7.30;99.90
1083;DHT22;530;51.448;7.238;2023-02-02T03:32:35;7.20;99.90
1083;DHT22;530;51.448;7.238;2023-02-02T03:35:02;7.40;99.90
1083;DHT22;530;51.448;7.238;2023-02-02T03:37:27;7.10;99.90
1083;DHT22;530;51.448;7.238;2023-02-02T03:39:53;7.20;99.90
1083;DHT22;530;51.448;7.238;2023-02-02T03:42:19;7.10;99.90
1083;DHT22;530;51.448;7.238;2023-02-02T03:44:44;7.20;99.90
1083;DHT22;530;51.448;7.238;2023-02-02T03:47:10;7.20;99.90
1083;DHT22;530;51.448;7.238;2023-02-02T03:49:35;7.20;99.90
1083;DHT22;530;51.448;7.238;2023-02-02T03:52:01;7.30;99.90
1083;DHT22;530;51.448;7.238;2023-02-02T03:54:29;7.20;99.90
1083;DHT22;530;51.448;7.238;2023-02-02T03:56:55;7.40;99.90
1083;DHT22;530;51.448;7.238;2023-02-02T03:59:21;7.30;99.90
1083;DHT22;530;51.448;7.238;2023-02-02T04:01:47;7.20;99.90
1083;DHT22;530;51.448;7.238;2023-02-02T04:04:12;7.20;99.90
1083;DHT22;530;51.448;7.238;2023-02-02T04:06:38;7.40;99.90
1083;DHT22;530;51.448;7.238;2023-02-02T04:09:04;7.20;99.90
1083;DHT22;530;51.448;7.238;2023-02-02T04:11:29;7.20;99.90
1083;DHT22;530;51.448;7.238;2023-02-02T04:13:55;7.30;99.90
1083;DHT22;530;51.448;7.238;2023-02-02T04:16:21;7.30;99.90
1083;DHT22;530;51.448;7.238;2023-02-02T04:18:46;7.30;99.90
1083;DHT22;530;51.448;7.238;2023-02-02T04:21:12;7.20;99.90
1083;DHT22;530;51.448;7.238;2023-02-02T04:23:37;7.10;99.90
1083;DHT22;530;51.448;7.238;2023-02-02T04:26:04;7.20;99.90
1083;DHT22;530;51.448;7.238;2023-02-02T04:28:30;7.20;99.90
1083;DHT22;530;51.448;7.238;2023-02-02T04:30:56;7.20;99.90
1083;DHT22;530;51.448;7.238;2023-02-02T04:33:23;7.20;99.90
1083;DHT22;530;51.448;7.238;2023-02-02T04:35:50;7.10;99.90
1083;DHT22;530;51.448;7.238;2023-02-02T04:38:15;7.20;99.90
1083;DHT22;530;51.448;7.238;2023-02-02T04:40:43;7.20;99.90
1083;DHT22;530;51.448;7.238;2023-02-02T04:43:09;7.30;99.90
1083;DHT22;530;51.448;7.238;2023-02-02T04:45:35;7.30;99.90
1083;DHT22;530;51.448;7.238;2023-02-02T04:48:01;7.40;99.90
1083;DHT22;530;51.448;7.238;2023-02-02T04:50:27;7.30;99.90
1083;DHT22;530;51.448;7.238;2023-02-02T04:52:53;7.40;99.90
1083;DHT22;530;51.448;7.238;2023-02-02T04:55:18;7.30;99.90
1083;DHT22;530;51.448;7.238;2023-02-02T04:57:44;7.30;99.90
1083;DHT22;530;51.448;7.238;2023-02-02T05:00:10;7.40;99.90
1083;DHT22;530;51.448;7.238;2023-02-02T05:02:37;7.30;99.90
1083;DHT22;530;51.448;7.238;2023-02-02T05:05:04;7.50;99.90
1083;DHT22;530;51.448;7.238;2023-02-02T05:07:30;7.40;99.90
1083;DHT22;530;51.448;7.238;2023-02-02T05:09:56;7.40;99.90
1083;DHT22;530;51.448;7.238;2023-02-02T05:12:22;7.40;99.90
1083;DHT22;530;51.448;7.238;2023-02-02T05:14:47;7.50;99.90
1083;DHT22;530;51.448;7.238;2023-02-02T05:17:13;7.50;99.90
1083;DHT22;530;51.448;7.238;2023-02-02T05:19:40;7.30;99.90
1083;DHT22;530;51.448;7.238;2023-02-02T05:22:06;7.30;99.90
1083;DHT22;530;51.448;7.238;2023-02-02T05:24:31;7.40;99.90
1083;DHT22;530;51.448;7.238;2023-02-02T05:26:57;7.40;99.90
1083;DHT22;530;51.448;7.238;2023-02-02T05:29:25;7.50;99.90
1083;DHT22;530;51.448;7.238;2023-02-02T05:31:51;7.50;99.90
1083;DHT22;530;51.448;7.238;2023-02-02T05:34:17;7.40;99.90
1083;DHT22;530;51.448;7.238;2023-02-02T05:36:43;7.40;99.90
1083;DHT22;530;51.448;7.238;2023-02-02T05:39:09;7.50;99.90
1083;DHT22;530;51.448;7.238;2023-02-02T05:41:35;7.60;99.90
1083;DHT22;530;51.448;7.238;2023-02-02T05:44:01;7.40;99.90
1083;DHT22;530;51.448;7.238;2023-02-02T05:46:27;7.50;99.90
1083;DHT22;530;51.448;7.238;2023-02-02T05:48:52;7.40;99.90
1083;DHT22;530;51.448;7.238;2023-02-02T05:51:21;7.40;99.90
1083;DHT22;530;51.448;7.238;2023-02-02T05:53:48;7.50;99.90
1083;DHT22;530;51.448;7.238;2023-02-02T05:56:14;7.50;99.90
1083;DHT22;530;51.448;7.238;2023-02-02T05:58:41;7.50;99.90
1083;DHT22;530;51.448;7.238;2023-02-02T06:01:06;7.50;99.90
1083;DHT22;530;51.448;7.238;2023-02-02T06:03:33;7.70;99.90
1083;DHT22;530;51.448;7.238;2023-02-02T06:05:58;7.60;99.90
1083;DHT22;530;51.448;7.238;2023-02-02T06:08:24;7.40;99.90
1083;DHT22;530;51.448;7.238;2023-02-02T06:10:50;7.40;99.90
1083;DHT22;530;51.448;7.238;2023-02-02T06:13:15;7.40;99.90
1083;DHT22;530;51.448;7.238;2023-02-02T06:15:41;7.40;99.90
1083;DHT22;530;51.448;7.238;2023-02-02T06:18:08;7.50;99.90
1083;DHT22;530;51.448;7.238;2023-02-02T06:20:34;7.40;99.90
1083;DHT22;530;51.448;7.238;2023-02-02T06:23:00;7.40;99.90
1083;DHT22;530;51.448;7.238;2023-02-02T06:25:26;7.40;99.90
1083;DHT22;530;51.448;7.238;2023-02-02T06:27:59;7.50;99.90
1083;DHT22;530;51.448;7.238;2023-02-02T06:30:26;7.40;99.90
1083;DHT22;530;51.448;7.238;2023-02-02T06:32:52;7.60;99.90
1083;DHT22;530;51.448;7.238;2023-02-02T06:35:18;7.60;99.90
1083;DHT22;530;51.448;7.238;2023-02-02T06:37:44;7.40;99.90
1083;DHT22;530;51.448;7.238;2023-02-02T06:40:11;7.40;99.90
1083;DHT22;530;51.448;7.238;2023-02-02T06:42:38;7.60;99.90
1083;DHT22;530;51.448;7.238;2023-02-02T06:45:04;7.50;99.90
1083;DHT22;530;51.448;7.238;2023-02-02T06:47:31;7.50;99.90
1083;DHT22;530;51.448;7.238;2023-02-02T06:49:57;7.50;99.90
1083;DHT22;530;51.448;7.238;2023-02-02T06:52:23;7.80;99.90
1083;DHT22;530;51.448;7.238;2023-02-02T06:54:48;7.60;99.90
1083;DHT22;530;51.448;7.238;2023-02-02T06:57:15;7.50;99.90
1083;DHT22;530;51.448;7.238;2023-02-02T06:59:40;7.40;99.90
1083;DHT22;530;51.448;7.238;2023-02-02T07:02:10;7.50;99.90
1083;DHT22;530;51.448;7.238;2023-02-02T07:04:36;7.40;99.90
1083;DHT22;530;51.448;7.238;2023-02-02T07:07:01;7.60;99.90
1083;DHT22;530;51.448;7.238;2023-02-02T07:09:27;7.50;99.90
1083;DHT22;530;51.448;7.238;2023-02-02T07:11:52;7.40;99.90
1083;DHT22;530;51.448;7.238;2023-02-02T07:14:18;7.30;99.90
1083;DHT22;530;51.448;7.238;2023-02-02T07:16:44;7.50;99.90
1083;DHT22;530;51.448;7.238;2023-02-02T07:19:09;7.60;99.90
1083;DHT22;530;51.448;7.238;2023-02-02T07:21:35;7.40;99.90
1083;DHT22;530;51.448;7.238;2023-02-02T07:24:02;7.50;99.90
1083;DHT22;530;51.448;7.238;2023-02-02T07:26:27;7.70;99.90
1083;DHT22;530;51.448;7.238;2023-02-02T07:28:54;7.50;99.90
1083;DHT22;530;51.448;7.238;2023-02-02T07:31:25;7.40;99.90
1083;DHT22;530;51.448;7.238;2023-02-02T07:33:51;7.50;99.90
1083;DHT22;530;51.448;7.238;2023-02-02T07:36:18;7.50;99.90
1083;DHT22;530;51.448;7.238;2023-02-02T07:38:46;7.50;99.90
1083;DHT22;530;51.448;7.238;2023-02-02T07:41:13;7.50;99.90
1083;DHT22;530;51.448;7.238;2023-02-02T07:43:39;7.40;99.90
1083;DHT22;530;51.448;7.238;2023-02-02T07:46:06;7.50;99.90
1083;DHT22;530;51.448;7.238;2023-02-02T07:48:33;7.60;99.90
1083;DHT22;530;51.448;7.238;2023-02-02T07:51:00;7.40;99.90
1083;DHT22;530;51.448;7.238;2023-02-02T07:53:26;7.70;99.90
1083;DHT22;530;51.448;7.238;2023-02-02T07:55:52;7.80;99.90
1083;DHT22;530;51.448;7.238;2023-02-02T07:58:18;7.60;99.90
1083;DHT22;530;51.448;7.238;2023-02-02T08:00:44;7.70;99.90
1083;DHT22;530;51.448;7.238;2023-02-02T08:03:10;7.80;99.90
1083;DHT22;530;51.448;7.238;2023-02-02T08:05:37;7.60;99.90
1083;DHT22;530;51.448;7.238;2023-02-02T08:08:02;7.60;99.90
1083;DHT22;530;51.448;7.238;2023-02-02T08:10:28;7.60;99.90
1083;DHT22;530;51.448;7.238;2023-02-02T08:12:54;7.60;99.90
1083;DHT22;530;51.448;7.238;2023-02-02T08:15:20;7.60;99.90
1083;DHT22;530;51.448;7.238;2023-02-02T08:17:46;7.70;99.90
1083;DHT22;530;51.448;7.238;2023-02-02T08:20:14;7.60;99.90
1083;DHT22;530;51.448;7.238;2023-02-02T08:22:40;7.80;99.90
1083;DHT22;530;51.448;7.238;2023-02-02T08:25:06;7.80;99.90
1083;DHT22;530;51.448;7.238;2023-02-02T08:27:32;7.60;99.90
1083;DHT22;530;51.448;7.238;2023-02-02T08:29:58;7.60;99.90
1083;DHT22;530;51.448;7.238;2023-02-02T08:32:23;7.60;99.90
1083;DHT22;530;51.448;7.238;2023-02-02T08:34:49;7.60;99.90
1083;DHT22;530;51.448;7.238;2023-02-02T08:37:16;7.60;99.90
1083;DHT22;530;51.448;7.238;2023-02-02T08:39:42;7.60;99.90
1083;DHT22;530;51.448;7.238;2023-02-02T08:42:08;7.70;99.90
1083;DHT22;530;51.448;7.238;2023-02-02T08:44:34;7.60;99.90
1083;DHT22;530;51.448;7.238;2023-02-02T08:46:59;7.60;99.90
1083;DHT22;530;51.448;7.238;2023-02-02T08:49:25;7.60;99.90
1083;DHT22;530;51.448;7.238;2023-02-02T08:51:51;7.60;99.90
1083;DHT22;530;51.448;7.238;2023-02-02T08:54:16;7.60;99.90
1083;DHT22;530;51.448;7.238;2023-02-02T08:56:42;7.70;99.90
1083;DHT22;530;51.448;7.238;2023-02-02T08:59:08;7.80;99.90
1083;DHT22;530;51.448;7.238;2023-02-02T09:01:34;7.70;99.90
1083;DHT22;530;51.448;7.238;2023-02-02T09:04:09;7.80;99.90
1083;DHT22;530;51.448;7.238;2023-02-02T09:06:39;7.70;99.90
1083;DHT22;530;51.448;7.238;2023-02-02T09:09:07;7.60;99.90
1083;DHT22;530;51.448;7.238;2023-02-02T09:11:34;7.60;99.90
1083;DHT22;530;51.448;7.238;2023-02-02T09:14:00;7.70;99.90
1083;DHT22;530;51.448;7.238;2023-02-02T09:16:27;7.60;99.90
1083;DHT22;530;51.448;7.238;2023-02-02T09:18:54;7.60;99.90
1083;DHT22;530;51.448;7.238;2023-02-02T09:21:20;7.50;99.90
1083;DHT22;530;51.448;7.238;2023-02-02T09:23:47;7.90;99.90
1083;DHT22;530;51.448;7.238;2023-02-02T09:26:16;7.70;99.90
1083;DHT22;530;51.448;7.238;2023-02-02T09:28:45;7.70;99.90
1083;DHT22;530;51.448;7.238;2023-02-02T09:31:11;7.90;99.90
1083;DHT22;530;51.448;7.238;2023-02-02T09:33:37;7.40;99.90
1083;DHT22;530;51.448;7.238;2023-02-02T09:38:33;7.70;99.90
1083;DHT22;530;51.448;7.238;2023-02-02T09:40:59;7.70;99.90
1083;DHT22;530;51.448;7.238;2023-02-02T09:46:26;7.70;99.90
1083;DHT22;530;51.448;7.238;2023-02-02T09:48:59;7.70;99.90
1083;DHT22;530;51.448;7.238;2023-02-02T09:51:31;7.60;99.90
1083;DHT22;530;51.448;7.238;2023-02-02T09:54:42;7.60;99.90
1083;DHT22;530;51.448;7.238;2023-02-02T09:57:19;7.70;99.90
1083;DHT22;530;51.448;7.238;2023-02-02T09:59:48;7.40;99.90
1083;DHT22;530;51.448;7.238;2023-02-02T10:02:21;8.00;99.90
1083;DHT22;530;51.448;7.238;2023-02-02T10:04:51;7.80;99.90
1083;DHT22;530;51.448;7.238;2023-02-02T10:07:30;7.80;99.90
1083;DHT22;530;51.448;7.238;2023-02-02T10:10:04;7.80;99.90
1083;DHT22;530;51.448;7.238;2023-02-02T10:12:45;7.80;99.90
1083;DHT22;530;51.448;7.238;2023-02-02T10:15:37;7.70;99.90
1083;DHT22;530;51.448;7.238;2023-02-02T10:21:12;7.70;99.90
1083;DHT22;530;51.448;7.238;2023-02-02T10:23:43;7.70;99.90
1083;DHT22;530;51.448;7.238;2023-02-02T10:46:04;7.70;99.90
1083;DHT22;530;51.448;7.238;2023-02-02T10:48:32;7.80;99.90
1083;DHT22;530;51.448;7.238;2023-02-02T10:51:22;8.00;99.90
1083;DHT22;530;51.448;7.238;2023-02-02T10:53:54;7.80;99.90
1083;DHT22;530;51.448;7.238;2023-02-02T10:56:36;7.90;99.90
1083;DHT22;530;51.448;7.238;2023-02-02T10:59:16;7.80;99.90
1083;DHT22;530;51.448;7.238;2023-02-02T11:01:44;7.90;99.90
1083;DHT22;530;51.448;7.238;2023-02-02T11:04:10;7.90;99.90
1083;DHT22;530;51.448;7.238;2023-02-02T11:06:54;7.90;99.90
1083;DHT22;530;51.448;7.238;2023-02-02T11:09:23;7.90;99.90
1083;DHT22;530;51.448;7.238;2023-02-02T11:11:54;7.80;99.90
1083;DHT22;530;51.448;7.238;2023-02-02T11:14:39;7.80;99.90
1083;DHT22;530;51.448;7.238;2023-02-02T11:17:19;7.80;99.90
1083;DHT22;530;51.448;7.238;2023-02-02T11:19:46;7.80;99.90
1083;DHT22;530;51.448;7.238;2023-02-02T11:22:33;7.80;99.90
1083;DHT22;530;51.448;7.238;2023-02-02T11:25:05;7.80;99.90
1083;DHT22;530;51.448;7.238;2023-02-02T11:30:08;7.80;99.90
1083;DHT22;530;51.448;7.238;2023-02-02T11:32:35;7.90;99.90
1083;DHT22;530;51.448;7.238;2023-02-02T11:35:16;7.50;99.90
1083;DHT22;530;51.448;7.238;2023-02-02T11:38:08;7.90;99.90
1083;DHT22;530;51.448;7.238;2023-02-02T11:40:44;8.00;99.90
1083;DHT22;530;51.448;7.238;2023-02-02T11:43:37;7.90;99.90
1083;DHT22;530;51.448;7.238;2023-02-02T11:51:22;8.00;99.90
1083;DHT22;530;51.448;7.238;2023-02-02T11:53:49;8.00;99.90
1083;DHT22;530;51.448;7.238;2023-02-02T11:56:24;8.00;99.90
1083;DHT22;530;51.448;7.238;2023-02-02T11:58:56;7.40;99.90
1083;DHT22;530;51.448;7.238;2023-02-02T12:01:30;7.90;99.90
1083;DHT22;530;51.448;7.238;2023-02-02T12:04:01;7.90;99.90
1083;DHT22;530;51.448;7.238;2023-02-02T12:06:37;7.70;99.90
1083;DHT22;530;51.448;7.238;2023-02-02T12:09:29;8.00;99.90
1083;DHT22;530;51.448;7.238;2023-02-02T12:15:04;8.00;99.90
1083;DHT22;530;51.448;7.238;2023-02-02T12:20:55;8.00;99.90
1083;DHT22;530;51.448;7.238;2023-02-02T12:26:30;8.00;99.90
1083;DHT22;530;51.448;7.238;2023-02-02T12:29:32;8.00;99.90
1083;DHT22;530;51.448;7.238;2023-02-02T12:35:32;8.00;99.90
1083;DHT22;530;51.448;7.238;2023-02-02T12:38:34;8.00;99.90
1083;DHT22;530;51.448;7.238;2023-02-02T12:43:41;8.20;99.90
1083;DHT22;530;51.448;7.238;2023-02-02T12:46:29;8.00;99.90
1083;DHT22;530;51.448;7.238;2023-02-02T12:49:33;8.00;99.90
1083;DHT22;530;51.448;7.238;2023-02-02T12:57:55;7.80;99.90
1083;DHT22;530;51.448;7.238;2023-02-02T13:12:04;8.00;99.90
1083;DHT22;530;51.448;7.238;2023-02-02T13:14:41;8.00;99.90
1083;DHT22;530;51.448;7.238;2023-02-02T13:19:46;7.80;99.90
1083;DHT22;530;51.448;7.238;2023-02-02T13:22:17;8.00;99.90
1083;DHT22;530;51.448;7.238;2023-02-02T13:24:46;8.10;99.90
1083;DHT22;530;51.448;7.238;2023-02-02T13:27:17;8.10;99.90
1083;DHT22;530;51.448;7.238;2023-02-02T13:29:51;8.10;99.90
1083;DHT22;530;51.448;7.238;2023-02-02T13:32:33;8.10;99.90
1083;DHT22;530;51.448;7.238;2023-02-02T13:37:53;8.10;99.90
1083;DHT22;530;51.448;7.238;2023-02-02T13:45:39;8.20;99.90
1083;DHT22;530;51.448;7.238;2023-02-02T14:01:50;8.20;99.90
1083;DHT22;530;51.448;7.238;2023-02-02T14:04:23;7.80;99.90
1083;DHT22;530;51.448;7.238;2023-02-02T14:07:00;8.20;99.90
1083;DHT22;530;51.448;7.238;2023-02-02T14:09:32;8.10;99.90
1083;DHT22;530;51.448;7.238;2023-02-02T14:12:01;8.20;99.90
1083;DHT22;530;51.448;7.238;2023-02-02T14:14:29;8.20;99.90
1083;DHT22;530;51.448;7.238;2023-02-02T14:20:00;8.20;99.90
1083;DHT22;530;51.448;7.238;2023-02-02T14:22:47;8.20;99.90
1083;DHT22;530;51.448;7.238;2023-02-02T14:27:58;8.20;99.90
1083;DHT22;530;51.448;7.238;2023-02-02T14:30:28;7.80;99.90
1083;DHT22;530;51.448;7.238;2023-02-02T14:33:21;8.20;99.90
1083;DHT22;530;51.448;7.238;2023-02-02T14:43:45;8.20;99.90
1083;DHT22;530;51.448;7.238;2023-02-02T14:48:46;8.20;99.90
1083;DHT22;530;51.448;7.238;2023-02-02T14:51:20;8.10;99.90
1083;DHT22;530;51.448;7.238;2023-02-02T14:53:52;8.30;99.90
1083;DHT22;530;51.448;7.238;2023-02-02T14:56:19;8.10;99.90
1083;DHT22;530;51.448;7.238;2023-02-02T14:58:54;8.20;99.90
1083;DHT22;530;51.448;7.238;2023-02-02T15:01:24;8.20;99.90
1083;DHT22;530;51.448;7.238;2023-02-02T15:06:49;8.20;99.90
1083;DHT22;530;51.448;7.238;2023-02-02T15:19:41;8.20;99.90
1083;DHT22;530;51.448;7.238;2023-02-02T15:24:49;8.40;99.90
1083;DHT22;530;51.448;7.238;2023-02-02T15:27:16;8.20;99.90
1083;DHT22;530;51.448;7.238;2023-02-02T15:29:49;8.10;99.90
1083;DHT22;530;51.448;7.238;2023-02-02T15:32:18;8.30;99.90
1083;DHT22;530;51.448;7.238;2023-02-02T15:34:48;8.10;99.90
1083;DHT22;530;51.448;7.238;2023-02-02T15:37:29;8.10;99.90
1083;DHT22;530;51.448;7.238;2023-02-02T15:39:58;8.20;99.90
1083;DHT22;530;51.448;7.238;2023-02-02T15:45:44;8.00;99.90
1083;DHT22;530;51.448;7.238;2023-02-02T15:48:24;8.20;99.90
1083;DHT22;530;51.448;7.238;2023-02-02T15:50:55;8.10;99.90
1083;DHT22;530;51.448;7.238;2023-02-02T15:53:27;8.10;99.90
1083;DHT22;530;51.448;7.238;2023-02-02T15:55:54;8.20;99.90
1083;DHT22;530;51.448;7.238;2023-02-02T15:58:31;8.20;99.90
1083;DHT22;530;51.448;7.238;2023-02-02T16:01:15;8.20;99.90
1083;DHT22;530;51.448;7.238;2023-02-02T16:06:29;7.80;99.90
1083;DHT22;530;51.448;7.238;2023-02-02T16:08:55;8.10;99.90
1083;DHT22;530;51.448;7.238;2023-02-02T16:11:22;8.10;99.90
1083;DHT22;530;51.448;7.238;2023-02-02T16:16:40;8.10;99.90
1083;DHT22;530;51.448;7.238;2023-02-02T16:19:22;8.10;99.90
1083;DHT22;530;51.448;7.238;2023-02-02T16:22:01;8.10;99.90
1083;DHT22;530;51.448;7.238;2023-02-02T16:24:40;8.10;99.90
1083;DHT22;530;51.448;7.238;2023-02-02T16:27:12;8.10;99.90
1083;DHT22;530;51.448;7.238;2023-02-02T16:29:39;8.10;99.90
1083;DHT22;530;51.448;7.238;2023-02-02T16:32:18;8.10;99.90
1083;DHT22;530;51.448;7.238;2023-02-02T16:34:44;8.10;99.90
1083;DHT22;530;51.448;7.238;2023-02-02T16:37:23;8.20;99.90
1083;DHT22;530;51.448;7.238;2023-02-02T16:42:39;8.10;99.90
1083;DHT22;530;51.448;7.238;2023-02-02T16:45:04;8.10;99.90
1083;DHT22;530;51.448;7.238;2023-02-02T16:47:33;8.10;99.90
1083;DHT22;530;51.448;7.238;2023-02-02T16:52:54;8.10;99.90
1083;DHT22;530;51.448;7.238;2023-02-02T16:55:21;8.10;99.90
1083;DHT22;530;51.448;7.238;2023-02-02T16:57:48;8.20;99.90
1083;DHT22;530;51.448;7.238;2023-02-02T17:00:20;8.30;99.90
1083;DHT22;530;51.448;7.238;2023-02-02T17:03:09;8.20;99.90
1083;DHT22;530;51.448;7.238;2023-02-02T17:05:46;8.20;99.90
1083;DHT22;530;51.448;7.238;2023-02-02T17:08:13;8.20;99.90
1083;DHT22;530;51.448;7.238;2023-02-02T17:10:43;7.90;99.90
1083;DHT22;530;51.448;7.238;2023-02-02T17:13:33;8.30;99.90
1083;DHT22;530;51.448;7.238;2023-02-02T17:16:01;8.30;99.90
1083;DHT22;530;51.448;7.238;2023-02-02T17:18:27;8.30;99.90
1083;DHT22;530;51.448;7.238;2023-02-02T17:20:54;8.30;99.90
1083;DHT22;530;51.448;7.238;2023-02-02T17:23:24;8.40;99.90
1083;DHT22;530;51.448;7.238;2023-02-02T17:25:52;8.30;99.90
1083;DHT22;530;51.448;7.238;2023-02-02T17:28:23;8.30;99.90
1083;DHT22;530;51.448;7.238;2023-02-02T17:31:10;8.30;99.90
1083;DHT22;530;51.448;7.238;2023-02-02T17:33:35;8.30;99.90
1083;DHT22;530;51.448;7.238;2023-02-02T17:36:02;8.00;99.90
1083;DHT22;530;51.448;7.238;2023-02-02T17:38:29;8.40;99.90
1083;DHT22;530;51.448;7.238;2023-02-02T17:40:58;8.30;99.90
1083;DHT22;530;51.448;7.238;2023-02-02T17:43:24;8.40;99.90
1083;DHT22;530;51.448;7.238;2023-02-02T17:45:50;8.40;99.90
1083;DHT22;530;51.448;7.238;2023-02-02T17:48:15;8.40;99.90
1083;DHT22;530;51.448;7.238;2023-02-02T17:50:42;8.40;99.90
1083;DHT22;530;51.448;7.238;2023-02-02T17:53:13;8.40;99.90
1083;DHT22;530;51.448;7.238;2023-02-02T17:55:40;8.20;99.90
1083;DHT22;530;51.448;7.238;2023-02-02T17:58:07;8.40;99.90
1083;DHT22;530;51.448;7.238;2023-02-02T18:00:34;8.50;99.90
1083;DHT22;530;51.448;7.238;2023-02-02T18:05:36;8.50;99.90
1083;DHT22;530;51.448;7.238;2023-02-02T18:08:02;8.50;99.90
1083;DHT22;530;51.448;7.238;2023-02-02T18:10:28;8.50;99.90
1083;DHT22;530;51.448;7.238;2023-02-02T18:12:55;8.50;99.90
1083;DHT22;530;51.448;7.238;2023-02-02T18:15:21;8.60;99.90
1083;DHT22;530;51.448;7.238;2023-02-02T18:17:46;8.50;99.90
1083;DHT22;530;51.448;7.238;2023-02-02T18:20:13;8.50;99.90
1083;DHT22;530;51.448;7.238;2023-02-02T18:22:40;8.50;99.90
1083;DHT22;530;51.448;7.238;2023-02-02T18:25:09;8.60;99.90
1083;DHT22;530;51.448;7.238;2023-02-02T18:27:35;8.60;99.90
1083;DHT22;530;51.448;7.238;2023-02-02T18:30:01;8.70;99.90
1083;DHT22;530;51.448;7.238;2023-02-02T18:32:27;8.50;99.90
1083;DHT22;530;51.448;7.238;2023-02-02T18:34:53;8.50;99.90
1083;DHT22;530;51.448;7.238;2023-02-02T18:37:21;8.60;99.90
1083;DHT22;530;51.448;7.238;2023-02-02T18:39:47;8.60;99.90
1083;DHT22;530;51.448;7.238;2023-02-02T18:42:12;8.60;99.90
1083;DHT22;530;51.448;7.238;2023-02-02T18:44:39;8.60;99.90
1083;DHT22;530;51.448;7.238;2023-02-02T18:47:05;8.60;99.90
1083;DHT22;530;51.448;7.238;2023-02-02T18:49:30;8.60;99.90
1083;DHT22;530;51.448;7.238;2023-02-02T18:51:56;8.60;99.90
1083;DHT22;530;51.448;7.238;2023-02-02T18:54:22;8.70;99.90
1083;DHT22;530;51.448;7.238;2023-02-02T18:56:48;8.60;99.90
1083;DHT22;530;51.448;7.238;2023-02-02T18:59:14;8.60;99.90
1083;DHT22;530;51.448;7.238;2023-02-02T19:01:40;8.60;99.90
1083;DHT22;530;51.448;7.238;2023-02-02T19:04:05;8.60;99.90
1083;DHT22;530;51.448;7.238;2023-02-02T19:06:31;8.70;99.90
1083;DHT22;530;51.448;7.238;2023-02-02T19:09:16;8.60;99.90
1083;DHT22;530;51.448;7.238;2023-02-02T19:11:47;8.70;99.90
1083;DHT22;530;51.448;7.238;2023-02-02T19:16:46;8.60;99.90
1083;DHT22;530;51.448;7.238;2023-02-02T19:19:18;8.40;99.90
1083;DHT22;530;51.448;7.238;2023-02-02T19:21:46;8.70;99.90
1083;DHT22;530;51.448;7.238;2023-02-02T19:24:12;8.70;99.90
1083;DHT22;530;51.448;7.238;2023-02-02T19:26:46;8.60;99.90
1083;DHT22;530;51.448;7.238;2023-02-02T19:29:19;8.60;99.90
1083;DHT22;530;51.448;7.238;2023-02-02T19:31:45;8.60;99.90
1083;DHT22;530;51.448;7.238;2023-02-02T19:34:18;8.60;99.90
1083;DHT22;530;51.448;7.238;2023-02-02T19:36:44;8.60;99.90
1083;DHT22;530;51.448;7.238;2023-02-02T19:39:18;8.20;99.90
1083;DHT22;530;51.448;7.238;2023-02-02T19:41:44;8.60;99.90
1083;DHT22;530;51.448;7.238;2023-02-02T19:44:17;8.60;99.90
1083;DHT22;530;51.448;7.238;2023-02-02T19:46:48;8.60;99.90
1083;DHT22;530;51.448;7.238;2023-02-02T19:49:32;8.60;99.90
1083;DHT22;530;51.448;7.238;2023-02-02T19:51:59;8.60;99.90
1083;DHT22;530;51.448;7.238;2023-02-02T19:54:35;8.60;99.90